Abernathy, Texas
Current Conditions -  °F | °C
As of 10:53 AM on Friday 24 Oct 2014 (Local Time) from KLBB Reporting Station
Clear Clear  
Wind Chill: 71°   Ceiling: Unl
Heat Index: 71°   Visibility: 10mi
Dew Point: 59°   Wind: 12mph
Humidity: 66%   Direction: 240°WSW
Pressure: 30.19"   Gusts: NA
Location:  33.83°N, 101.84°W
Report Text: KLBB 241553Z 24010KT 10SM CLR 22/15 A3019 RMK AO2 SLP185 T02170150
Loading
Personal Weather Stations






























Interactive Weather Map
Tropical Storm Tracking
New forecast layout! Learn more

10-Day Weather Forecast

Advertisements
Track Severe Weather on mobile